sensor_id;sensor_type;location;lat;lon;timestamp;P1;durP1;ratioP1;P2;durP2;ratioP2
20734;SDS011;10528;52.124;5.196;2022-12-20T00:01:23;7.72;;;3.80;;
20734;SDS011;10528;52.124;5.196;2022-12-20T00:03:54;5.95;;;3.67;;
20734;SDS011;10528;52.124;5.196;2022-12-20T00:06:23;5.03;;;3.53;;
20734;SDS011;10528;52.124;5.196;2022-12-20T00:08:52;8.00;;;3.83;;
20734;SDS011;10528;52.124;5.196;2022-12-20T00:11:25;6.28;;;3.35;;
20734;SDS011;10528;52.124;5.196;2022-12-20T00:13:53;5.88;;;3.97;;
20734;SDS011;10528;52.124;5.196;2022-12-20T00:16:21;6.57;;;3.47;;
20734;SDS011;10528;52.124;5.196;2022-12-20T00:18:52;8.38;;;3.88;;
20734;SDS011;10528;52.124;5.196;2022-12-20T00:21:26;5.68;;;3.90;;
20734;SDS011;10528;52.124;5.196;2022-12-20T00:23:54;5.47;;;3.75;;
20734;SDS011;10528;52.124;5.196;2022-12-20T00:26:22;7.75;;;3.80;;
20734;SDS011;10528;52.124;5.196;2022-12-20T00:28:52;4.95;;;3.70;;
20734;SDS011;10528;52.124;5.196;2022-12-20T00:31:20;5.13;;;3.30;;
20734;SDS011;10528;52.124;5.196;2022-12-20T00:33:49;6.18;;;3.13;;
20734;SDS011;10528;52.124;5.196;2022-12-20T00:36:19;7.13;;;3.60;;
20734;SDS011;10528;52.124;5.196;2022-12-20T00:38:48;6.28;;;3.92;;
20734;SDS011;10528;52.124;5.196;2022-12-20T00:41:18;6.15;;;3.60;;
20734;SDS011;10528;52.124;5.196;2022-12-20T00:43:51;4.95;;;3.20;;
20734;SDS011;10528;52.124;5.196;2022-12-20T00:46:21;6.55;;;3.45;;
20734;SDS011;10528;52.124;5.196;2022-12-20T00:48:50;4.85;;;3.22;;
20734;SDS011;10528;52.124;5.196;2022-12-20T00:51:20;4.03;;;3.03;;
20734;SDS011;10528;52.124;5.196;2022-12-20T00:53:51;5.10;;;2.97;;
20734;SDS011;10528;52.124;5.196;2022-12-20T00:56:19;6.80;;;3.33;;
20734;SDS011;10528;52.124;5.196;2022-12-20T00:58:47;6.22;;;3.10;;
20734;SDS011;10528;52.124;5.196;2022-12-20T01:03:50;5.30;;;2.97;;
20734;SDS011;10528;52.124;5.196;2022-12-20T01:06:19;5.00;;;3.25;;
20734;SDS011;10528;52.124;5.196;2022-12-20T01:08:47;6.30;;;3.17;;
20734;SDS011;10528;52.124;5.196;2022-12-20T01:13:49;5.70;;;3.30;;
20734;SDS011;10528;52.124;5.196;2022-12-20T01:16:29;5.57;;;2.90;;
20734;SDS011;10528;52.124;5.196;2022-12-20T01:19:09;4.78;;;2.92;;
20734;SDS011;10528;52.124;5.196;2022-12-20T01:21:39;5.22;;;3.40;;
20734;SDS011;10528;52.124;5.196;2022-12-20T01:24:10;6.95;;;3.22;;
20734;SDS011;10528;52.124;5.196;2022-12-20T01:26:42;4.72;;;3.38;;
20734;SDS011;10528;52.124;5.196;2022-12-20T01:29:11;7.75;;;3.05;;
20734;SDS011;10528;52.124;5.196;2022-12-20T01:31:40;7.57;;;3.22;;
20734;SDS011;10528;52.124;5.196;2022-12-20T01:34:08;6.15;;;3.40;;
20734;SDS011;10528;52.124;5.196;2022-12-20T01:36:36;5.38;;;3.30;;
20734;SDS011;10528;52.124;5.196;2022-12-20T01:39:06;4.60;;;2.90;;
20734;SDS011;10528;52.124;5.196;2022-12-20T01:41:38;7.25;;;3.58;;
20734;SDS011;10528;52.124;5.196;2022-12-20T01:46:42;5.43;;;3.28;;
20734;SDS011;10528;52.124;5.196;2022-12-20T01:49:16;7.05;;;3.47;;
20734;SDS011;10528;52.124;5.196;2022-12-20T01:51:57;7.45;;;3.55;;
20734;SDS011;10528;52.124;5.196;2022-12-20T01:54:35;6.68;;;3.72;;
20734;SDS011;10528;52.124;5.196;2022-12-20T01:57:14;8.27;;;3.22;;
20734;SDS011;10528;52.124;5.196;2022-12-20T01:59:54;5.03;;;3.80;;
20734;SDS011;10528;52.124;5.196;2022-12-20T02:02:22;7.00;;;3.55;;
20734;SDS011;10528;52.124;5.196;2022-12-20T02:04:50;6.63;;;3.22;;
20734;SDS011;10528;52.124;5.196;2022-12-20T02:07:20;4.75;;;3.20;;
20734;SDS011;10528;52.124;5.196;2022-12-20T02:09:52;4.97;;;3.30;;
20734;SDS011;10528;52.124;5.196;2022-12-20T02:12:24;5.45;;;3.55;;
20734;SDS011;10528;52.124;5.196;2022-12-20T02:23:41;5.25;;;3.38;;
20734;SDS011;10528;52.124;5.196;2022-12-20T02:34:39;9.05;;;3.78;;
20734;SDS011;10528;52.124;5.196;2022-12-20T02:37:08;6.70;;;3.70;;
20734;SDS011;10528;52.124;5.196;2022-12-20T02:39:36;6.07;;;3.70;;
20734;SDS011;10528;52.124;5.196;2022-12-20T02:42:08;6.75;;;3.50;;
20734;SDS011;10528;52.124;5.196;2022-12-20T02:44:40;6.25;;;3.17;;
20734;SDS011;10528;52.124;5.196;2022-12-20T02:47:34;7.63;;;3.47;;
20734;SDS011;10528;52.124;5.196;2022-12-20T02:50:09;5.40;;;3.58;;
20734;SDS011;10528;52.124;5.196;2022-12-20T02:52:38;6.53;;;3.47;;
20734;SDS011;10528;52.124;5.196;2022-12-20T02:55:08;4.68;;;3.30;;
20734;SDS011;10528;52.124;5.196;2022-12-20T02:57:44;7.70;;;3.00;;
20734;SDS011;10528;52.124;5.196;2022-12-20T03:00:26;6.05;;;3.42;;
20734;SDS011;10528;52.124;5.196;2022-12-20T03:03:02;4.82;;;3.10;;
20734;SDS011;10528;52.124;5.196;2022-12-20T03:05:52;5.40;;;3.17;;
20734;SDS011;10528;52.124;5.196;2022-12-20T03:08:21;6.88;;;3.25;;
20734;SDS011;10528;52.124;5.196;2022-12-20T03:10:50;5.80;;;3.20;;
20734;SDS011;10528;52.124;5.196;2022-12-20T03:13:20;6.43;;;3.63;;
20734;SDS011;10528;52.124;5.196;2022-12-20T03:15:55;7.47;;;3.42;;
20734;SDS011;10528;52.124;5.196;2022-12-20T03:18:22;5.38;;;3.30;;
20734;SDS011;10528;52.124;5.196;2022-12-20T03:20:48;4.60;;;3.00;;
20734;SDS011;10528;52.124;5.196;2022-12-20T03:23:16;5.78;;;3.20;;
20734;SDS011;10528;52.124;5.196;2022-12-20T03:25:42;6.50;;;3.50;;
20734;SDS011;10528;52.124;5.196;2022-12-20T03:28:15;5.05;;;3.28;;
20734;SDS011;10528;52.124;5.196;2022-12-20T03:30:43;5.72;;;3.67;;
20734;SDS011;10528;52.124;5.196;2022-12-20T03:33:11;5.40;;;3.20;;
20734;SDS011;10528;52.124;5.196;2022-12-20T03:35:38;5.10;;;3.45;;
20734;SDS011;10528;52.124;5.196;2022-12-20T03:38:07;5.25;;;3.30;;
20734;SDS011;10528;52.124;5.196;2022-12-20T03:40:35;4.22;;;3.13;;
20734;SDS011;10528;52.124;5.196;2022-12-20T03:43:02;4.30;;;3.40;;
20734;SDS011;10528;52.124;5.196;2022-12-20T03:45:28;5.60;;;3.58;;
20734;SDS011;10528;52.124;5.196;2022-12-20T03:47:55;6.80;;;3.63;;
20734;SDS011;10528;52.124;5.196;2022-12-20T03:50:25;6.93;;;3.60;;
20734;SDS011;10528;52.124;5.196;2022-12-20T03:52:52;5.68;;;3.40;;
20734;SDS011;10528;52.124;5.196;2022-12-20T03:55:19;6.63;;;3.30;;
20734;SDS011;10528;52.124;5.196;2022-12-20T03:57:46;7.18;;;3.60;;
20734;SDS011;10528;52.124;5.196;2022-12-20T04:00:30;5.20;;;3.30;;
20734;SDS011;10528;52.124;5.196;2022-12-20T04:03:15;4.20;;;3.08;;
20734;SDS011;10528;52.124;5.196;2022-12-20T04:05:43;4.85;;;3.50;;
20734;SDS011;10528;52.124;5.196;2022-12-20T04:08:10;4.82;;;2.85;;
20734;SDS011;10528;52.124;5.196;2022-12-20T04:10:38;7.57;;;3.40;;
20734;SDS011;10528;52.124;5.196;2022-12-20T04:13:30;5.68;;;2.97;;
20734;SDS011;10528;52.124;5.196;2022-12-20T04:15:58;4.80;;;3.20;;
20734;SDS011;10528;52.124;5.196;2022-12-20T04:18:28;6.72;;;3.20;;
20734;SDS011;10528;52.124;5.196;2022-12-20T04:20:58;5.13;;;3.03;;
20734;SDS011;10528;52.124;5.196;2022-12-20T04:23:29;4.78;;;2.85;;
20734;SDS011;10528;52.124;5.196;2022-12-20T04:25:56;5.20;;;3.10;;
20734;SDS011;10528;52.124;5.196;2022-12-20T04:28:23;5.20;;;2.80;;
20734;SDS011;10528;52.124;5.196;2022-12-20T04:30:52;7.30;;;3.30;;
20734;SDS011;10528;52.124;5.196;2022-12-20T04:33:23;4.47;;;2.80;;
20734;SDS011;10528;52.124;5.196;2022-12-20T04:35:51;5.30;;;3.03;;
20734;SDS011;10528;52.124;5.196;2022-12-20T04:38:20;5.13;;;3.10;;
20734;SDS011;10528;52.124;5.196;2022-12-20T04:40:50;5.35;;;3.25;;
20734;SDS011;10528;52.124;5.196;2022-12-20T04:43:21;5.20;;;2.72;;
20734;SDS011;10528;52.124;5.196;2022-12-20T04:45:53;4.35;;;3.00;;
20734;SDS011;10528;52.124;5.196;2022-12-20T04:48:23;5.75;;;2.80;;
20734;SDS011;10528;52.124;5.196;2022-12-20T04:51:12;4.95;;;2.88;;
20734;SDS011;10528;52.124;5.196;2022-12-20T04:53:40;4.90;;;2.70;;
20734;SDS011;10528;52.124;5.196;2022-12-20T04:56:27;5.07;;;3.40;;
20734;SDS011;10528;52.124;5.196;2022-12-20T04:59:01;5.90;;;3.30;;
20734;SDS011;10528;52.124;5.196;2022-12-20T05:01:29;5.57;;;3.25;;
20734;SDS011;10528;52.124;5.196;2022-12-20T05:03:56;5.18;;;3.17;;
20734;SDS011;10528;52.124;5.196;2022-12-20T05:06:25;5.60;;;3.80;;
20734;SDS011;10528;52.124;5.196;2022-12-20T05:08:52;7.18;;;3.40;;
20734;SDS011;10528;52.124;5.196;2022-12-20T05:11:20;5.32;;;3.40;;
20734;SDS011;10528;52.124;5.196;2022-12-20T05:13:47;5.60;;;3.25;;
20734;SDS011;10528;52.124;5.196;2022-12-20T05:16:16;6.25;;;3.78;;
20734;SDS011;10528;52.124;5.196;2022-12-20T05:18:44;5.55;;;3.33;;
20734;SDS011;10528;52.124;5.196;2022-12-20T05:21:15;8.05;;;3.88;;
20734;SDS011;10528;52.124;5.196;2022-12-20T05:24:01;4.47;;;3.05;;
20734;SDS011;10528;52.124;5.196;2022-12-20T05:26:56;4.72;;;3.50;;
20734;SDS011;10528;52.124;5.196;2022-12-20T05:29:24;5.32;;;3.33;;
20734;SDS011;10528;52.124;5.196;2022-12-20T05:31:52;6.07;;;3.40;;
20734;SDS011;10528;52.124;5.196;2022-12-20T05:34:19;6.63;;;3.55;;
20734;SDS011;10528;52.124;5.196;2022-12-20T05:36:51;5.25;;;3.60;;
20734;SDS011;10528;52.124;5.196;2022-12-20T05:39:19;7.78;;;3.53;;
20734;SDS011;10528;52.124;5.196;2022-12-20T05:41:48;5.88;;;3.47;;
20734;SDS011;10528;52.124;5.196;2022-12-20T05:44:15;5.45;;;2.72;;
20734;SDS011;10528;52.124;5.196;2022-12-20T05:46:46;7.13;;;3.55;;
20734;SDS011;10528;52.124;5.196;2022-12-20T05:49:18;6.05;;;3.60;;
20734;SDS011;10528;52.124;5.196;2022-12-20T05:51:45;7.13;;;3.75;;
20734;SDS011;10528;52.124;5.196;2022-12-20T05:54:23;5.90;;;3.45;;
20734;SDS011;10528;52.124;5.196;2022-12-20T05:57:11;5.82;;;3.28;;
20734;SDS011;10528;52.124;5.196;2022-12-20T05:59:39;6.43;;;3.45;;
20734;SDS011;10528;52.124;5.196;2022-12-20T06:02:14;5.30;;;3.10;;
20734;SDS011;10528;52.124;5.196;2022-12-20T06:04:42;4.25;;;3.17;;
20734;SDS011;10528;52.124;5.196;2022-12-20T06:07:15;5.47;;;3.45;;
20734;SDS011;10528;52.124;5.196;2022-12-20T06:09:45;6.20;;;2.90;;
20734;SDS011;10528;52.124;5.196;2022-12-20T06:12:15;5.15;;;3.05;;
20734;SDS011;10528;52.124;5.196;2022-12-20T06:14:44;5.03;;;3.17;;
20734;SDS011;10528;52.124;5.196;2022-12-20T06:17:11;5.05;;;3.22;;
20734;SDS011;10528;52.124;5.196;2022-12-20T06:19:39;5.57;;;3.25;;
20734;SDS011;10528;52.124;5.196;2022-12-20T06:22:11;6.90;;;3.30;;
20734;SDS011;10528;52.124;5.196;2022-12-20T06:24:41;4.78;;;3.13;;
20734;SDS011;10528;52.124;5.196;2022-12-20T06:27:16;4.95;;;2.70;;
20734;SDS011;10528;52.124;5.196;2022-12-20T06:29:52;4.80;;;2.90;;
20734;SDS011;10528;52.124;5.196;2022-12-20T06:32:23;4.32;;;3.10;;
20734;SDS011;10528;52.124;5.196;2022-12-20T06:34:51;8.38;;;3.67;;
20734;SDS011;10528;52.124;5.196;2022-12-20T06:37:18;6.05;;;2.70;;
20734;SDS011;10528;52.124;5.196;2022-12-20T06:39:45;6.57;;;2.90;;
20734;SDS011;10528;52.124;5.196;2022-12-20T06:42:13;6.18;;;2.78;;
20734;SDS011;10528;52.124;5.196;2022-12-20T06:44:42;5.50;;;3.03;;
20734;SDS011;10528;52.124;5.196;2022-12-20T06:47:09;3.67;;;2.70;;
20734;SDS011;10528;52.124;5.196;2022-12-20T06:49:37;6.85;;;3.08;;
20734;SDS011;10528;52.124;5.196;2022-12-20T06:52:10;6.47;;;3.00;;
20734;SDS011;10528;52.124;5.196;2022-12-20T06:54:44;5.63;;;2.72;;
20734;SDS011;10528;52.124;5.196;2022-12-20T06:57:11;7.28;;;2.88;;
20734;SDS011;10528;52.124;5.196;2022-12-20T06:59:41;4.57;;;2.85;;
20734;SDS011;10528;52.124;5.196;2022-12-20T07:02:09;4.63;;;2.88;;
20734;SDS011;10528;52.124;5.196;2022-12-20T07:04:37;5.25;;;2.60;;
20734;SDS011;10528;52.124;5.196;2022-12-20T07:07:04;7.05;;;2.60;;
20734;SDS011;10528;52.124;5.196;2022-12-20T07:09:32;4.63;;;2.50;;
20734;SDS011;10528;52.124;5.196;2022-12-20T07:11:59;5.70;;;2.70;;
20734;SDS011;10528;52.124;5.196;2022-12-20T07:14:26;4.97;;;2.80;;
20734;SDS011;10528;52.124;5.196;2022-12-20T07:16:53;5.88;;;3.28;;
20734;SDS011;10528;52.124;5.196;2022-12-20T07:19:20;3.85;;;2.50;;
20734;SDS011;10528;52.124;5.196;2022-12-20T07:21:47;3.60;;;2.50;;
20734;SDS011;10528;52.124;5.196;2022-12-20T07:24:14;4.68;;;2.80;;
20734;SDS011;10528;52.124;5.196;2022-12-20T07:26:45;6.30;;;2.20;;
20734;SDS011;10528;52.124;5.196;2022-12-20T07:29:12;5.47;;;2.78;;
20734;SDS011;10528;52.124;5.196;2022-12-20T07:31:41;4.78;;;2.58;;
20734;SDS011;10528;52.124;5.196;2022-12-20T07:34:09;3.97;;;2.50;;
20734;SDS011;10528;52.124;5.196;2022-12-20T07:36:37;5.20;;;2.70;;
20734;SDS011;10528;52.124;5.196;2022-12-20T07:39:04;4.40;;;2.42;;
20734;SDS011;10528;52.124;5.196;2022-12-20T07:41:31;4.28;;;2.47;;
20734;SDS011;10528;52.124;5.196;2022-12-20T07:43:58;4.90;;;2.70;;
20734;SDS011;10528;52.124;5.196;2022-12-20T07:46:26;4.60;;;2.60;;
20734;SDS011;10528;52.124;5.196;2022-12-20T07:48:54;4.65;;;2.47;;
20734;SDS011;10528;52.124;5.196;2022-12-20T07:51:28;5.72;;;2.60;;
20734;SDS011;10528;52.124;5.196;2022-12-20T07:54:10;4.60;;;2.47;;
20734;SDS011;10528;52.124;5.196;2022-12-20T07:56:46;5.35;;;2.38;;
20734;SDS011;10528;52.124;5.196;2022-12-20T07:59:21;6.22;;;2.42;;
20734;SDS011;10528;52.124;5.196;2022-12-20T08:01:54;4.20;;;2.65;;
20734;SDS011;10528;52.124;5.196;2022-12-20T08:04:30;5.45;;;2.38;;
20734;SDS011;10528;52.124;5.196;2022-12-20T08:06:57;5.47;;;2.50;;
20734;SDS011;10528;52.124;5.196;2022-12-20T08:09:27;4.40;;;2.38;;
20734;SDS011;10528;52.124;5.196;2022-12-20T08:12:00;5.82;;;2.63;;
20734;SDS011;10528;52.124;5.196;2022-12-20T08:14:27;6.38;;;2.58;;
20734;SDS011;10528;52.124;5.196;2022-12-20T08:16:54;6.68;;;2.75;;
20734;SDS011;10528;52.124;5.196;2022-12-20T08:19:21;4.38;;;2.45;;
20734;SDS011;10528;52.124;5.196;2022-12-20T08:21:57;3.75;;;2.45;;
20734;SDS011;10528;52.124;5.196;2022-12-20T08:24:24;3.72;;;2.65;;
20734;SDS011;10528;52.124;5.196;2022-12-20T08:26:51;4.75;;;2.80;;
20734;SDS011;10528;52.124;5.196;2022-12-20T08:29:18;4.90;;;3.03;;
20734;SDS011;10528;52.124;5.196;2022-12-20T08:31:45;5.07;;;2.45;;
20734;SDS011;10528;52.124;5.196;2022-12-20T08:34:16;2.95;;;2.28;;
20734;SDS011;10528;52.124;5.196;2022-12-20T08:36:43;5.38;;;2.80;;
20734;SDS011;10528;52.124;5.196;2022-12-20T08:39:10;7.70;;;2.88;;
20734;SDS011;10528;52.124;5.196;2022-12-20T08:41:37;3.65;;;2.40;;
20734;SDS011;10528;52.124;5.196;2022-12-20T08:44:05;5.53;;;2.42;;
20734;SDS011;10528;52.124;5.196;2022-12-20T08:46:32;4.20;;;2.38;;
20734;SDS011;10528;52.124;5.196;2022-12-20T08:48:59;3.83;;;2.30;;
20734;SDS011;10528;52.124;5.196;2022-12-20T08:51:26;3.50;;;2.22;;
20734;SDS011;10528;52.124;5.196;2022-12-20T08:53:54;6.28;;;2.78;;
20734;SDS011;10528;52.124;5.196;2022-12-20T08:56:22;5.63;;;2.65;;
20734;SDS011;10528;52.124;5.196;2022-12-20T08:58:50;5.95;;;2.65;;
20734;SDS011;10528;52.124;5.196;2022-12-20T09:01:18;5.30;;;2.40;;
20734;SDS011;10528;52.124;5.196;2022-12-20T09:03:47;3.67;;;2.22;;
20734;SDS011;10528;52.124;5.196;2022-12-20T09:06:18;6.40;;;2.92;;
20734;SDS011;10528;52.124;5.196;2022-12-20T09:08:47;4.03;;;2.42;;
20734;SDS011;10528;52.124;5.196;2022-12-20T09:11:18;5.10;;;2.65;;
20734;SDS011;10528;52.124;5.196;2022-12-20T09:13:49;5.78;;;2.50;;
20734;SDS011;10528;52.124;5.196;2022-12-20T09:16:21;4.65;;;2.45;;
20734;SDS011;10528;52.124;5.196;2022-12-20T09:18:52;5.10;;;2.47;;
20734;SDS011;10528;52.124;5.196;2022-12-20T09:21:30;6.07;;;2.33;;
20734;SDS011;10528;52.124;5.196;2022-12-20T09:23:57;4.32;;;2.40;;
20734;SDS011;10528;52.124;5.196;2022-12-20T09:26:25;5.93;;;2.75;;
20734;SDS011;10528;52.124;5.196;2022-12-20T09:28:52;5.60;;;2.50;;
20734;SDS011;10528;52.124;5.196;2022-12-20T09:31:20;4.22;;;2.42;;
20734;SDS011;10528;52.124;5.196;2022-12-20T09:33:54;6.10;;;2.78;;
20734;SDS011;10528;52.124;5.196;2022-12-20T09:36:27;6.85;;;2.60;;
20734;SDS011;10528;52.124;5.196;2022-12-20T09:38:55;5.80;;;2.60;;
20734;SDS011;10528;52.124;5.196;2022-12-20T09:41:33;4.47;;;2.65;;
20734;SDS011;10528;52.124;5.196;2022-12-20T09:44:10;4.30;;;2.50;;
20734;SDS011;10528;52.124;5.196;2022-12-20T09:46:51;4.03;;;2.78;;
20734;SDS011;10528;52.124;5.196;2022-12-20T09:49:36;6.07;;;2.58;;
20734;SDS011;10528;52.124;5.196;2022-12-20T09:55:15;5.68;;;2.90;;
20734;SDS011;10528;52.124;5.196;2022-12-20T09:58:23;8.20;;;2.53;;
20734;SDS011;10528;52.124;5.196;2022-12-20T10:00:56;5.20;;;2.55;;
20734;SDS011;10528;52.124;5.196;2022-12-20T10:03:32;4.80;;;2.50;;
20734;SDS011;10528;52.124;5.196;2022-12-20T10:09:03;5.70;;;2.53;;
20734;SDS011;10528;52.124;5.196;2022-12-20T10:11:47;8.40;;;2.80;;
20734;SDS011;10528;52.124;5.196;2022-12-20T10:26:31;5.43;;;2.83;;
20734;SDS011;10528;52.124;5.196;2022-12-20T10:28:59;6.20;;;2.90;;
20734;SDS011;10528;52.124;5.196;2022-12-20T10:31:26;6.63;;;3.22;;
20734;SDS011;10528;52.124;5.196;2022-12-20T10:33:53;5.30;;;2.90;;
20734;SDS011;10528;52.124;5.196;2022-12-20T10:36:25;5.57;;;3.05;;
20734;SDS011;10528;52.124;5.196;2022-12-20T10:39:00;7.22;;;3.03;;
20734;SDS011;10528;52.124;5.196;2022-12-20T10:44:18;6.93;;;3.25;;
20734;SDS011;10528;52.124;5.196;2022-12-20T10:46:56;5.40;;;3.17;;
20734;SDS011;10528;52.124;5.196;2022-12-20T10:49:30;5.38;;;3.22;;
20734;SDS011;10528;52.124;5.196;2022-12-20T10:52:10;5.15;;;3.15;;
20734;SDS011;10528;52.124;5.196;2022-12-20T10:54:43;4.55;;;3.25;;
20734;SDS011;10528;52.124;5.196;2022-12-20T10:59:42;4.90;;;3.20;;
20734;SDS011;10528;52.124;5.196;2022-12-20T11:11:15;6.60;;;3.38;;
20734;SDS011;10528;52.124;5.196;2022-12-20T11:13:43;5.47;;;3.33;;
20734;SDS011;10528;52.124;5.196;2022-12-20T11:16:21;4.93;;;3.35;;
20734;SDS011;10528;52.124;5.196;2022-12-20T11:19:31;8.43;;;3.92;;
20734;SDS011;10528;52.124;5.196;2022-12-20T11:25:42;5.78;;;3.45;;
20734;SDS011;10528;52.124;5.196;2022-12-20T11:37:08;4.20;;;3.00;;
20734;SDS011;10528;52.124;5.196;2022-12-20T11:45:18;6.10;;;3.88;;
20734;SDS011;10528;52.124;5.196;2022-12-20T11:53:53;5.90;;;3.75;;
20734;SDS011;10528;52.124;5.196;2022-12-20T11:56:45;5.53;;;4.00;;
20734;SDS011;10528;52.124;5.196;2022-12-20T11:59:21;7.43;;;4.28;;
20734;SDS011;10528;52.124;5.196;2022-12-20T12:02:12;7.13;;;4.10;;
20734;SDS011;10528;52.124;5.196;2022-12-20T12:05:16;6.07;;;3.70;;
20734;SDS011;10528;52.124;5.196;2022-12-20T12:08:16;5.65;;;3.70;;
20734;SDS011;10528;52.124;5.196;2022-12-20T12:10:57;6.55;;;3.92;;
20734;SDS011;10528;52.124;5.196;2022-12-20T12:14:03;5.20;;;3.65;;
20734;SDS011;10528;52.124;5.196;2022-12-20T12:16:38;6.65;;;4.30;;
20734;SDS011;10528;52.124;5.196;2022-12-20T12:19:14;7.90;;;4.57;;
20734;SDS011;10528;52.124;5.196;2022-12-20T12:22:42;5.45;;;4.05;;
20734;SDS011;10528;52.124;5.196;2022-12-20T12:24:55;5.97;;;4.30;;
20734;SDS011;10528;52.124;5.196;2022-12-20T12:27:29;7.05;;;4.25;;
20734;SDS011;10528;52.124;5.196;2022-12-20T12:29:57;5.25;;;4.07;;
20734;SDS011;10528;52.124;5.196;2022-12-20T12:32:26;5.43;;;4.70;;
20734;SDS011;10528;52.124;5.196;2022-12-20T12:35:04;5.78;;;3.80;;
20734;SDS011;10528;52.124;5.196;2022-12-20T12:38:19;6.40;;;3.92;;
20734;SDS011;10528;52.124;5.196;2022-12-20T12:43:45;7.82;;;4.15;;
20734;SDS011;10528;52.124;5.196;2022-12-20T12:46:23;5.85;;;4.20;;
20734;SDS011;10528;52.124;5.196;2022-12-20T12:49:04;7.75;;;4.18;;
20734;SDS011;10528;52.124;5.196;2022-12-20T12:51:43;6.55;;;4.30;;
20734;SDS011;10528;52.124;5.196;2022-12-20T12:54:22;6.57;;;4.38;;
20734;SDS011;10528;52.124;5.196;2022-12-20T12:57:01;8.25;;;5.22;;
20734;SDS011;10528;52.124;5.196;2022-12-20T13:04:59;6.20;;;4.32;;
20734;SDS011;10528;52.124;5.196;2022-12-20T13:15:48;7.00;;;5.07;;
20734;SDS011;10528;52.124;5.196;2022-12-20T13:20:25;6.57;;;4.97;;
20734;SDS011;10528;52.124;5.196;2022-12-20T13:25:35;6.70;;;4.55;;
20734;SDS011;10528;52.124;5.196;2022-12-20T13:39:03;6.93;;;4.88;;
20734;SDS011;10528;52.124;5.196;2022-12-20T13:45:08;8.20;;;4.70;;
20734;SDS011;10528;52.124;5.196;2022-12-20T13:47:41;6.07;;;4.80;;
20734;SDS011;10528;52.124;5.196;2022-12-20T13:50:22;7.30;;;4.20;;
20734;SDS011;10528;52.124;5.196;2022-12-20T13:52:57;6.63;;;4.57;;
20734;SDS011;10528;52.124;5.196;2022-12-20T13:55:29;6.40;;;4.53;;
20734;SDS011;10528;52.124;5.196;2022-12-20T13:58:02;5.57;;;4.55;;
20734;SDS011;10528;52.124;5.196;2022-12-20T14:00:52;4.55;;;4.05;;
20734;SDS011;10528;52.124;5.196;2022-12-20T14:03:30;5.55;;;4.47;;
20734;SDS011;10528;52.124;5.196;2022-12-20T14:06:03;5.07;;;4.45;;
20734;SDS011;10528;52.124;5.196;2022-12-20T14:08:37;4.63;;;4.03;;
20734;SDS011;10528;52.124;5.196;2022-12-20T14:11:15;4.70;;;4.25;;
20734;SDS011;10528;52.124;5.196;2022-12-20T14:14:03;5.50;;;4.45;;
20734;SDS011;10528;52.124;5.196;2022-12-20T14:16:31;5.30;;;4.70;;
20734;SDS011;10528;52.124;5.196;2022-12-20T14:18:59;6.95;;;4.82;;
20734;SDS011;10528;52.124;5.196;2022-12-20T14:21:33;6.10;;;4.85;;
20734;SDS011;10528;52.124;5.196;2022-12-20T14:24:25;5.60;;;4.93;;
20734;SDS011;10528;52.124;5.196;2022-12-20T14:27:04;5.57;;;5.00;;
20734;SDS011;10528;52.124;5.196;2022-12-20T14:29:32;7.32;;;6.13;;
20734;SDS011;10528;52.124;5.196;2022-12-20T14:32:00;5.88;;;5.22;;
20734;SDS011;10528;52.124;5.196;2022-12-20T14:34:27;6.43;;;5.40;;
20734;SDS011;10528;52.124;5.196;2022-12-20T14:42:38;5.97;;;5.00;;
20734;SDS011;10528;52.124;5.196;2022-12-20T14:47:36;6.15;;;5.28;;
20734;SDS011;10528;52.124;5.196;2022-12-20T14:50:18;7.63;;;4.85;;
20734;SDS011;10528;52.124;5.196;2022-12-20T14:53:16;6.35;;;5.75;;
20734;SDS011;10528;52.124;5.196;2022-12-20T14:55:48;6.03;;;5.30;;
20734;SDS011;10528;52.124;5.196;2022-12-20T14:58:26;6.05;;;5.45;;
20734;SDS011;10528;52.124;5.196;2022-12-20T15:00:58;6.97;;;5.10;;
20734;SDS011;10528;52.124;5.196;2022-12-20T15:03:52;7.13;;;5.78;;
20734;SDS011;10528;52.124;5.196;2022-12-20T15:09:13;6.55;;;5.72;;
20734;SDS011;10528;52.124;5.196;2022-12-20T15:11:41;9.73;;;6.03;;
20734;SDS011;10528;52.124;5.196;2022-12-20T15:14:31;7.97;;;6.78;;
20734;SDS011;10528;52.124;5.196;2022-12-20T15:17:10;7.03;;;6.35;;
20734;SDS011;10528;52.124;5.196;2022-12-20T15:19:42;8.02;;;6.43;;
20734;SDS011;10528;52.124;5.196;2022-12-20T15:22:16;7.93;;;6.30;;
20734;SDS011;10528;52.124;5.196;2022-12-20T15:24:45;6.82;;;6.13;;
20734;SDS011;10528;52.124;5.196;2022-12-20T15:27:13;6.93;;;6.13;;
20734;SDS011;10528;52.124;5.196;2022-12-20T15:29:40;7.40;;;6.47;;
20734;SDS011;10528;52.124;5.196;2022-12-20T15:32:41;7.32;;;6.60;;
20734;SDS011;10528;52.124;5.196;2022-12-20T15:35:02;8.23;;;6.88;;
20734;SDS011;10528;52.124;5.196;2022-12-20T15:37:29;7.88;;;6.80;;
20734;SDS011;10528;52.124;5.196;2022-12-20T15:39:56;8.55;;;6.97;;
20734;SDS011;10528;52.124;5.196;2022-12-20T15:42:23;10.23;;;8.10;;
20734;SDS011;10528;52.124;5.196;2022-12-20T15:44:50;8.63;;;7.38;;
20734;SDS011;10528;52.124;5.196;2022-12-20T15:47:17;10.65;;;7.93;;
20734;SDS011;10528;52.124;5.196;2022-12-20T15:49:44;9.07;;;8.13;;
20734;SDS011;10528;52.124;5.196;2022-12-20T15:52:19;8.93;;;8.02;;
20734;SDS011;10528;52.124;5.196;2022-12-20T15:54:49;7.88;;;7.07;;
20734;SDS011;10528;52.124;5.196;2022-12-20T15:57:16;8.98;;;8.00;;
20734;SDS011;10528;52.124;5.196;2022-12-20T15:59:43;8.98;;;8.00;;
20734;SDS011;10528;52.124;5.196;2022-12-20T16:02:37;9.75;;;7.70;;
20734;SDS011;10528;52.124;5.196;2022-12-20T16:05:04;16.77;;;8.35;;
20734;SDS011;10528;52.124;5.196;2022-12-20T16:07:34;9.27;;;8.38;;
20734;SDS011;10528;52.124;5.196;2022-12-20T16:10:01;9.48;;;8.50;;
20734;SDS011;10528;52.124;5.196;2022-12-20T16:12:30;9.80;;;8.52;;
20734;SDS011;10528;52.124;5.196;2022-12-20T16:15:00;10.52;;;9.40;;
20734;SDS011;10528;52.124;5.196;2022-12-20T16:17:27;10.40;;;9.38;;
20734;SDS011;10528;52.124;5.196;2022-12-20T16:19:55;11.15;;;9.18;;
20734;SDS011;10528;52.124;5.196;2022-12-20T16:22:22;9.82;;;8.82;;
20734;SDS011;10528;52.124;5.196;2022-12-20T16:24:51;11.05;;;9.82;;
20734;SDS011;10528;52.124;5.196;2022-12-20T16:27:18;10.07;;;8.90;;
20734;SDS011;10528;52.124;5.196;2022-12-20T16:29:46;11.38;;;9.43;;
20734;SDS011;10528;52.124;5.196;2022-12-20T16:32:14;9.55;;;8.55;;
20734;SDS011;10528;52.124;5.196;2022-12-20T16:34:45;10.50;;;9.30;;
20734;SDS011;10528;52.124;5.196;2022-12-20T16:37:14;9.80;;;8.90;;
20734;SDS011;10528;52.124;5.196;2022-12-20T16:39:41;10.45;;;9.38;;
20734;SDS011;10528;52.124;5.196;2022-12-20T16:42:12;9.75;;;8.65;;
20734;SDS011;10528;52.124;5.196;2022-12-20T16:44:51;10.50;;;9.20;;
20734;SDS011;10528;52.124;5.196;2022-12-20T16:47:19;10.63;;;9.52;;
20734;SDS011;10528;52.124;5.196;2022-12-20T16:49:47;10.52;;;9.38;;
20734;SDS011;10528;52.124;5.196;2022-12-20T16:52:19;10.07;;;9.10;;
20734;SDS011;10528;52.124;5.196;2022-12-20T16:54:48;10.52;;;9.43;;
20734;SDS011;10528;52.124;5.196;2022-12-20T16:57:15;10.30;;;9.25;;
20734;SDS011;10528;52.124;5.196;2022-12-20T16:59:42;10.65;;;9.55;;
20734;SDS011;10528;52.124;5.196;2022-12-20T17:02:19;10.85;;;9.75;;
20734;SDS011;10528;52.124;5.196;2022-12-20T17:04:55;10.18;;;9.13;;
20734;SDS011;10528;52.124;5.196;2022-12-20T17:07:22;9.88;;;8.88;;
20734;SDS011;10528;52.124;5.196;2022-12-20T17:09:50;9.70;;;8.70;;
20734;SDS011;10528;52.124;5.196;2022-12-20T17:12:36;9.60;;;8.63;;
20734;SDS011;10528;52.124;5.196;2022-12-20T17:15:03;10.70;;;9.60;;
20734;SDS011;10528;52.124;5.196;2022-12-20T17:17:31;11.32;;;10.13;;
20734;SDS011;10528;52.124;5.196;2022-12-20T17:19:58;11.25;;;10.05;;
20734;SDS011;10528;52.124;5.196;2022-12-20T17:22:25;10.82;;;9.73;;
20734;SDS011;10528;52.124;5.196;2022-12-20T17:25:16;11.35;;;10.20;;